Hilshire Village, Texas
Current Conditions -  °F | °C
As of 7:35 PM on Tuesday 25 Nov 2014 (Local Time) from KMCJ Reporting Station
Clear Clear  
Wind Chill: 59°   Ceiling: Unl
Heat Index: 59°   Visibility: 10mi
Dew Point: 25°   Wind: 0mph
Humidity: 27%   Direction: NA
Pressure: 30.21"   Gusts: NA
Location:  29.7972°N, 95.4933°W
Report Text: KMCJ 260135Z AUTO 00000KT 10SM CLR 15/M04 A3021 RMK AO1
Loading
Personal Weather Stations






























Interactive Weather Map New forecast layout! Learn more

10-Day Weather Forecast

Advertisements
Track Severe Weather on mobile